Time;durP1;ratioP1;P1;durP2;ratioP2;P2;SDS_P1;SDS_P2;PMS_P1;PMS_P2;Temp;Humidity;BMP_temperature;BMP_pressure;BME280_temperature;BME280_humidity;BME280_pressure;Samples;Min_cycle;Max_cycle;Signal;HPM_P1;HPM_P2
2022/11/04 00:00:50;;;;;;;0.90;0.70;;;8.30;99.90;;;;;;4229065;28;20679;-70
2022/11/04 00:02:51;;;;;;;0.90;0.60;;;8.20;99.90;;;;;;4230754;28;20272;-71
2022/11/04 00:04:51;;;;;;;3.23;1.27;;;8.20;99.90;;;;;;4230781;28;20370;-71
2022/11/04 00:06:53;;;;;;;2.53;1.60;;;8.30;99.90;;;;;;4230141;28;20210;-71
2022/11/04 00:08:58;;;;;;;1.67;1.20;;;8.30;99.90;;;;;;4214081;28;20216;-73
2022/11/04 00:13:19;;;;;;;1.50;1.10;;;8.30;99.90;;;;;;4213752;28;20177;-71
2022/11/04 00:17:38;;;;;;;0.80;0.80;;;8.30;99.90;;;;;;4212495;28;20251;-71
2022/11/04 00:28:55;;;;;;;1.53;1.20;;;8.00;99.90;;;;;;4212478;28;20929;-71
2022/11/04 00:33:24;;;;;;;1.03;0.87;;;8.00;99.90;;;;;;4228218;28;20179;-71
2022/11/04 00:33:24;;;;;;;1.13;0.73;;;7.90;99.90;;;;;;4213207;28;20187;-71
2022/11/04 00:35:25;;;;;;;0.93;0.83;;;7.90;99.90;;;;;;4212145;28;20826;-72
2022/11/04 00:37:25;;;;;;;1.40;1.00;;;7.90;99.90;;;;;;4213405;28;20190;-73
2022/11/04 00:39:26;;;;;;;1.50;1.00;;;8.00;99.90;;;;;;4212094;28;20343;-71
2022/11/04 00:41:28;;;;;;;1.33;1.17;;;8.00;99.90;;;;;;4212583;28;20799;-72
2022/11/04 00:43:29;;;;;;;2.47;1.80;;;8.00;99.90;;;;;;4213370;28;20185;-72
2022/11/04 00:45:29;;;;;;;2.17;1.20;;;7.90;99.90;;;;;;4228435;28;20185;-72
2022/11/04 00:47:30;;;;;;;3.03;1.60;;;7.90;99.90;;;;;;4213006;28;20256;-71
2022/11/04 00:49:31;;;;;;;1.73;0.80;;;7.90;99.90;;;;;;4212014;28;20211;-72
2022/11/04 00:51:31;;;;;;;1.70;1.00;;;7.80;99.90;;;;;;4212655;28;20182;-72
2022/11/04 00:53:32;;;;;;;2.03;1.40;;;7.90;99.90;;;;;;4211880;28;20247;-71
2022/11/04 00:55:33;;;;;;;1.23;0.87;;;7.90;99.90;;;;;;4212888;28;20188;-71
2022/11/04 00:57:33;;;;;;;2.20;0.83;;;7.80;99.90;;;;;;4224409;28;20178;-72
2022/11/04 00:59:34;;;;;;;1.80;0.70;;;7.90;99.90;;;;;;4229778;28;20211;-72
2022/11/04 01:01:35;;;;;;;0.80;0.70;;;7.90;99.90;;;;;;4227726;28;20238;-72
2022/11/04 01:03:36;;;;;;;1.30;0.47;;;7.80;99.90;;;;;;4239704;28;20826;-71
2022/11/04 01:05:37;;;;;;;0.47;0.47;;;7.90;99.90;;;;;;4244056;28;20256;-72
2022/11/04 01:07:38;;;;;;;0.50;0.50;;;7.90;99.90;;;;;;4230718;28;20206;-70
2022/11/04 01:09:39;;;;;;;0.40;0.40;;;7.90;99.90;;;;;;4229120;28;20201;-72
2022/11/04 01:11:39;;;;;;;0.70;0.53;;;7.80;99.90;;;;;;4228556;28;20181;-72
2022/11/04 01:13:40;;;;;;;0.90;0.60;;;7.70;99.90;;;;;;4230116;28;20170;-71
2022/11/04 01:15:41;;;;;;;2.03;1.20;;;7.70;99.90;;;;;;4229709;28;20187;-72
2022/11/04 01:17:42;;;;;;;2.10;0.90;;;7.70;99.90;;;;;;4228617;28;20198;-71
2022/11/04 01:19:42;;;;;;;0.97;0.97;;;7.70;99.90;;;;;;4229381;28;20251;-70
2022/11/04 01:21:43;;;;;;;0.60;0.60;;;7.80;99.90;;;;;;4228823;28;20193;-71
2022/11/04 01:23:44;;;;;;;3.43;3.33;;;7.60;99.90;;;;;;4228567;28;20228;-72
2022/11/04 01:25:45;;;;;;;0.87;0.60;;;7.60;99.90;;;;;;4228880;28;20709;-70
2022/11/04 01:27:46;;;;;;;0.50;0.50;;;7.60;99.90;;;;;;4231279;28;20240;-72
2022/11/04 01:29:47;;;;;;;0.60;0.60;;;7.60;99.90;;;;;;4230164;28;20735;-72
2022/11/04 01:31:47;;;;;;;0.60;0.60;;;7.70;99.90;;;;;;4227905;28;20909;-72
2022/11/04 01:33:50;;;;;;;0.73;0.73;;;7.70;99.90;;;;;;4229176;28;20216;-72
2022/11/04 01:35:51;;;;;;;0.70;0.67;;;7.50;99.90;;;;;;4228370;28;20170;-72
2022/11/04 01:37:52;;;;;;;0.83;0.83;;;7.50;99.90;;;;;;4229612;28;20554;-72
2022/11/04 01:39:52;;;;;;;0.60;0.60;;;7.50;99.90;;;;;;4229579;28;20200;-72
2022/11/04 01:41:53;;;;;;;1.27;0.60;;;7.50;99.90;;;;;;4227754;28;20190;-71
2022/11/04 01:44:01;;;;;;;0.50;0.50;;;7.40;99.90;;;;;;4229653;28;20182;-72
2022/11/04 01:46:02;;;;;;;1.00;0.60;;;7.50;99.90;;;;;;4211099;28;20224;-71
2022/11/04 01:48:08;;;;;;;2.73;1.60;;;7.50;99.90;;;;;;4228059;28;20245;-72
2022/11/04 01:50:22;;;;;;;0.70;0.70;;;7.50;99.90;;;;;;4228108;28;20745;-70
2022/11/04 01:52:52;;;;;;;0.50;0.50;;;7.50;99.90;;;;;;4228316;28;20409;-72
2022/11/04 01:54:56;;;;;;;1.70;1.60;;;7.40;99.90;;;;;;4228326;28;20178;-72
2022/11/04 01:57:00;;;;;;;1.13;1.10;;;7.30;99.90;;;;;;4228027;28;20178;-72
2022/11/04 01:59:10;;;;;;;0.70;0.70;;;7.20;99.90;;;;;;4227783;28;20750;-72
2022/11/04 02:01:12;;;;;;;0.50;0.50;;;7.20;99.90;;;;;;4227056;28;20414;-72
2022/11/04 02:03:19;;;;;;;0.70;0.63;;;7.10;99.90;;;;;;4227675;28;20228;-72
2022/11/04 02:05:20;;;;;;;0.60;0.60;;;7.20;99.90;;;;;;4215569;28;20564;-71
2022/11/04 02:07:21;;;;;;;0.70;0.50;;;7.10;99.90;;;;;;4211336;28;20830;-71
2022/11/04 02:09:24;;;;;;;0.60;0.60;;;7.20;99.90;;;;;;4210867;28;20527;-72
2022/11/04 02:13:44;;;;;;;1.53;1.53;;;7.10;99.90;;;;;;4211958;28;20425;-71
2022/11/04 02:16:03;;;;;;;0.70;0.50;;;7.20;99.90;;;;;;4212005;28;20417;-71
2022/11/04 02:18:46;;;;;;;0.70;0.63;;;7.30;99.90;;;;;;4212171;28;20183;-71
2022/11/04 02:21:20;;;;;;;0.87;0.70;;;7.40;99.90;;;;;;4193535;28;20429;-72
2022/11/04 02:23:52;;;;;;;0.87;0.60;;;7.30;99.90;;;;;;4212074;28;20289;-71
2022/11/04 02:26:26;;;;;;;0.70;0.70;;;7.10;99.90;;;;;;4206530;28;20425;-72
2022/11/04 02:29:14;;;;;;;0.90;0.90;;;6.90;99.90;;;;;;4210556;28;20489;-71
2022/11/04 02:31:52;;;;;;;0.63;0.63;;;6.90;99.90;;;;;;4211161;28;20413;-74
2022/11/04 02:34:20;;;;;;;2.63;2.53;;;6.90;99.90;;;;;;4213785;28;20520;-72
2022/11/04 02:36:50;;;;;;;1.60;0.70;;;6.70;99.90;;;;;;4214075;28;20412;-71
2022/11/04 02:39:02;;;;;;;0.50;0.50;;;6.70;99.90;;;;;;4214116;28;20199;-71
2022/11/04 02:41:38;;;;;;;0.87;0.87;;;6.80;99.90;;;;;;4212983;28;20415;-71
2022/11/04 02:44:18;;;;;;;1.03;0.67;;;6.80;99.90;;;;;;4215119;28;20431;-71
2022/11/04 02:46:41;;;;;;;0.97;0.63;;;6.80;99.90;;;;;;4213780;28;20474;-71
2022/11/04 02:48:59;;;;;;;0.60;0.53;;;7.00;99.90;;;;;;4213697;28;20452;-72
2022/11/04 02:51:25;;;;;;;0.60;0.60;;;7.00;99.90;;;;;;4212898;28;20444;-72
2022/11/04 02:53:35;;;;;;;0.73;0.60;;;7.00;99.90;;;;;;4212901;28;20433;-71
2022/11/04 02:55:42;;;;;;;0.53;0.50;;;6.60;99.90;;;;;;4221385;28;20513;-71
2022/11/04 02:57:45;;;;;;;35.33;1.43;;;6.60;99.90;;;;;;4230701;28;20918;-71
2022/11/04 03:00:04;;;;;;;1.40;1.00;;;6.70;99.90;;;;;;4213412;28;20835;-72
2022/11/04 03:02:12;;;;;;;2.37;1.00;;;6.80;99.90;;;;;;4246633;27;20777;-71
2022/11/04 03:04:17;;;;;;;1.13;0.97;;;6.80;99.90;;;;;;4231423;28;20443;-70
2022/11/04 03:06:23;;;;;;;1.20;0.70;;;6.80;99.90;;;;;;4242609;28;20418;-71
2022/11/04 03:08:30;;;;;;;1.40;0.63;;;6.80;99.90;;;;;;4236102;28;20517;-71
2022/11/04 03:10:40;;;;;;;0.67;0.67;;;6.70;99.90;;;;;;4230592;28;21437;-72
2022/11/04 03:13:13;;;;;;;0.90;0.87;;;6.60;99.90;;;;;;4230547;28;21025;-71
2022/11/04 03:15:23;;;;;;;1.40;0.70;;;6.50;99.90;;;;;;4212882;28;20504;-71
2022/11/04 03:18:01;;;;;;;0.70;0.70;;;6.30;99.90;;;;;;4230456;28;20419;-71
2022/11/04 03:20:15;;;;;;;3.83;1.13;;;6.40;99.90;;;;;;4231954;28;20416;-71
2022/11/04 03:22:20;;;;;;;0.90;0.60;;;6.30;99.90;;;;;;4230457;28;20416;-71
2022/11/04 03:24:21;;;;;;;1.73;0.70;;;6.20;99.90;;;;;;4230149;28;20469;-71
2022/11/04 03:26:44;;;;;;;2.33;0.83;;;6.30;99.90;;;;;;4230119;28;20432;-71
2022/11/04 03:29:19;;;;;;;0.60;0.60;;;6.40;99.90;;;;;;4229975;28;20202;-71
2022/11/04 03:31:34;;;;;;;0.90;0.67;;;6.50;99.90;;;;;;4230540;28;20476;-71
2022/11/04 03:33:45;;;;;;;2.30;1.20;;;6.60;99.90;;;;;;4229858;28;20417;-71
2022/11/04 03:35:45;;;;;;;1.07;0.80;;;6.40;99.90;;;;;;4229856;28;20420;-71
2022/11/04 03:37:48;;;;;;;0.63;0.60;;;6.40;99.90;;;;;;4229781;28;20423;-71
2022/11/04 03:39:49;;;;;;;0.80;0.80;;;6.50;99.90;;;;;;4222842;28;20194;-71
2022/11/04 03:41:55;;;;;;;1.20;0.90;;;6.70;99.90;;;;;;4228625;28;20522;-72
2022/11/04 03:43:56;;;;;;;2.33;0.73;;;6.90;99.90;;;;;;4228501;28;20167;-71
2022/11/04 03:45:57;;;;;;;1.83;0.90;;;6.80;99.90;;;;;;4229519;28;20416;-71
2022/11/04 03:47:59;;;;;;;1.17;0.70;;;6.80;99.90;;;;;;4229555;28;20217;-72
2022/11/04 03:50:11;;;;;;;1.13;0.80;;;6.90;99.90;;;;;;4231070;28;20775;-72
2022/11/04 03:52:13;;;;;;;1.57;0.70;;;7.00;99.90;;;;;;4246298;27;20777;-71
2022/11/04 03:54:15;;;;;;;1.00;0.90;;;7.00;99.90;;;;;;4230661;27;20928;-71
2022/11/04 03:56:30;;;;;;;3.20;0.83;;;7.10;99.90;;;;;;4227859;28;20444;-71
2022/11/04 03:59:03;;;;;;;1.47;0.80;;;7.20;99.90;;;;;;4230354;28;20444;-72
2022/11/04 04:01:30;;;;;;;1.10;0.80;;;7.30;99.90;;;;;;4245841;27;20820;-71
2022/11/04 04:03:40;;;;;;;2.00;0.90;;;7.10;99.90;;;;;;4246299;27;20770;-71
2022/11/04 04:05:55;;;;;;;3.17;1.00;;;7.20;99.90;;;;;;4228334;28;20408;-71
2022/11/04 04:08:14;;;;;;;3.13;1.00;;;7.10;99.90;;;;;;4230286;27;20470;-71
2022/11/04 04:10:37;;;;;;;1.17;0.93;;;7.10;99.90;;;;;;4212835;28;20567;-71
2022/11/04 04:12:40;;;;;;;1.70;0.90;;;7.00;99.90;;;;;;4212312;28;20489;-72
2022/11/04 04:14:52;;;;;;;2.23;0.80;;;7.00;99.90;;;;;;4212266;28;20417;-70
2022/11/04 04:16:55;;;;;;;1.17;0.90;;;7.10;99.90;;;;;;4212028;28;20428;-71
2022/11/04 04:19:04;;;;;;;2.40;1.00;;;7.00;99.90;;;;;;4212448;28;21034;-71
2022/11/04 04:21:11;;;;;;;3.77;1.00;;;6.90;99.90;;;;;;4211492;28;20416;-71
2022/11/04 04:28:04;;;;;;;4.80;1.03;;;6.80;99.90;;;;;;4212880;28;20564;-70
2022/11/04 04:30:09;;;;;;;2.00;1.00;;;6.80;99.90;;;;;;4211835;28;20421;-70
2022/11/04 04:32:11;;;;;;;1.37;0.90;;;6.50;99.90;;;;;;4211517;28;21111;-71
2022/11/04 04:34:11;;;;;;;3.30;1.27;;;6.60;99.90;;;;;;4213036;28;20432;-70
2022/11/04 04:36:12;;;;;;;1.00;0.90;;;6.50;99.90;;;;;;4211654;28;20425;-70
2022/11/04 04:46:06;;;;;;;1.70;1.10;;;6.60;99.90;;;;;;4214914;28;20442;-70
2022/11/04 04:48:10;;;;;;;1.40;0.93;;;6.50;99.90;;;;;;4211483;28;20464;-69
2022/11/04 04:50:17;;;;;;;1.03;0.90;;;6.60;99.90;;;;;;4227780;28;20255;-69
2022/11/04 04:52:18;;;;;;;1.63;1.10;;;6.60;99.90;;;;;;4228652;28;20427;-69
2022/11/04 04:54:19;;;;;;;1.90;1.03;;;6.60;99.90;;;;;;4228121;28;20927;-70
2022/11/04 04:56:19;;;;;;;1.10;0.90;;;6.50;99.90;;;;;;4240557;27;20471;-70
2022/11/04 04:58:20;;;;;;;1.77;1.20;;;6.40;99.90;;;;;;4229708;28;20213;-71
2022/11/04 05:00:21;;;;;;;2.47;1.07;;;6.40;99.90;;;;;;4229139;28;20178;-70
2022/11/04 05:02:21;;;;;;;0.80;0.80;;;6.40;99.90;;;;;;4229712;28;20194;-70
2022/11/04 05:04:22;;;;;;;6.13;1.30;;;6.20;99.90;;;;;;4229710;28;20270;-70
2022/11/04 05:06:23;;;;;;;2.30;1.60;;;6.20;99.90;;;;;;4235213;28;20646;-70
2022/11/04 05:08:23;;;;;;;3.57;1.40;;;6.20;99.90;;;;;;4226381;28;20225;-70
2022/11/04 05:10:24;;;;;;;1.50;0.97;;;6.20;99.90;;;;;;4229281;28;20178;-70
2022/11/04 05:12:25;;;;;;;1.87;1.47;;;6.30;99.90;;;;;;4230529;28;20201;-70
2022/11/04 05:14:26;;;;;;;3.70;1.47;;;6.20;99.90;;;;;;4230185;28;20174;-70
2022/11/04 05:16:26;;;;;;;1.60;1.40;;;6.20;99.90;;;;;;4228618;28;20182;-70
2022/11/04 05:18:27;;;;;;;2.67;1.10;;;6.10;99.90;;;;;;4229784;28;20700;-70
2022/11/04 05:20:29;;;;;;;3.90;1.20;;;6.00;99.90;;;;;;4229075;28;20239;-70
2022/11/04 05:22:29;;;;;;;5.40;1.00;;;6.00;99.90;;;;;;4229887;28;20186;-70
2022/11/04 05:24:30;;;;;;;3.33;1.40;;;5.90;99.90;;;;;;4229597;28;20447;-70
2022/11/04 05:26:31;;;;;;;2.13;0.97;;;6.00;99.90;;;;;;4229692;28;20190;-71
2022/11/04 05:28:31;;;;;;;1.53;1.03;;;6.10;99.90;;;;;;4229697;28;20210;-70
2022/11/04 05:30:33;;;;;;;3.43;1.60;;;6.20;99.90;;;;;;4228954;28;20173;-69
2022/11/04 05:32:34;;;;;;;3.10;1.27;;;6.20;99.90;;;;;;4228097;28;20175;-70
2022/11/04 05:34:34;;;;;;;9.90;6.67;;;6.20;99.90;;;;;;4229494;28;20419;-69
2022/11/04 05:36:35;;;;;;;1.60;1.40;;;6.20;99.90;;;;;;4229767;28;20198;-70
2022/11/04 05:38:37;;;;;;;4.13;1.30;;;6.10;99.90;;;;;;4228003;28;20202;-70
2022/11/04 05:40:38;;;;;;;2.27;1.43;;;6.10;99.90;;;;;;4228928;28;20426;-70
2022/11/04 05:42:39;;;;;;;2.20;1.07;;;6.10;99.90;;;;;;4229759;28;20452;-70
2022/11/04 05:44:40;;;;;;;2.33;1.10;;;6.20;99.90;;;;;;4229584;28;20178;-70
2022/11/04 05:46:40;;;;;;;4.97;1.37;;;6.20;99.90;;;;;;4229331;28;20969;-70
2022/11/04 05:48:41;;;;;;;2.87;1.80;;;6.10;99.90;;;;;;4229376;28;20617;-69
2022/11/04 05:50:42;;;;;;;2.57;1.63;;;5.90;99.90;;;;;;4227246;28;20186;-70
2022/11/04 05:52:42;;;;;;;3.17;1.20;;;6.10;99.90;;;;;;4229189;28;20205;-71
2022/11/04 05:54:43;;;;;;;1.60;1.23;;;6.10;99.90;;;;;;4229550;28;20244;-71
2022/11/04 05:56:44;;;;;;;2.13;1.30;;;6.20;99.90;;;;;;4228748;28;20182;-71
2022/11/04 05:58:44;;;;;;;5.50;1.33;;;6.20;99.90;;;;;;4229126;28;20198;-70
2022/11/04 06:00:45;;;;;;;5.13;1.47;;;6.20;99.90;;;;;;4213606;28;20194;-70
2022/11/04 06:02:46;;;;;;;2.40;1.17;;;6.10;99.90;;;;;;4212213;28;20198;-71
2022/11/04 06:04:47;;;;;;;3.53;1.37;;;6.10;99.90;;;;;;4212092;28;20183;-71
2022/11/04 06:06:47;;;;;;;4.00;1.50;;;5.90;99.90;;;;;;4212002;28;20937;-70
2022/11/04 06:08:49;;;;;;;4.60;1.30;;;6.00;99.90;;;;;;4215696;28;20249;-70
2022/11/04 06:10:50;;;;;;;8.47;5.20;;;6.10;99.90;;;;;;4213701;28;20191;-70
2022/11/04 06:12:51;;;;;;;8.00;4.97;;;6.00;99.90;;;;;;4215660;28;20439;-70
2022/11/04 06:14:51;;;;;;;7.87;4.27;;;5.80;99.90;;;;;;4215505;28;20186;-70
2022/11/04 06:16:52;;;;;;;11.60;3.40;;;5.70;99.90;;;;;;4215557;28;20183;-70
2022/11/04 06:18:53;;;;;;;4.47;2.70;;;5.60;99.90;;;;;;4215681;28;20206;-71
2022/11/04 06:21:08;;;;;;;4.10;2.33;;;5.70;99.90;;;;;;4213561;28;20293;-71
2022/11/04 06:23:08;;;;;;;3.43;2.07;;;5.70;99.90;;;;;;4215754;28;20432;-70
2022/11/04 06:25:09;;;;;;;15.30;2.30;;;5.70;99.90;;;;;;4215344;28;21147;-70
2022/11/04 06:27:10;;;;;;;3.23;1.30;;;5.60;99.90;;;;;;4215587;28;20531;-70
2022/11/04 06:29:11;;;;;;;4.67;1.53;;;5.50;99.90;;;;;;4215409;28;20245;-70
2022/11/04 06:31:13;;;;;;;7.33;1.30;;;5.60;99.90;;;;;;4213590;28;20179;-70
2022/11/04 06:33:14;;;;;;;4.00;1.40;;;5.70;99.90;;;;;;4213823;28;20194;-70
2022/11/04 06:35:15;;;;;;;2.07;1.30;;;5.80;99.90;;;;;;4215472;28;20428;-71
2022/11/04 06:37:15;;;;;;;4.80;1.70;;;5.70;99.90;;;;;;4215418;28;20194;-71
2022/11/04 06:39:16;;;;;;;6.20;1.83;;;5.60;99.90;;;;;;4215230;28;20207;-70
2022/11/04 06:41:17;;;;;;;2.13;1.30;;;5.70;99.90;;;;;;4214575;28;20183;-71
2022/11/04 06:43:17;;;;;;;1.53;1.30;;;5.80;99.90;;;;;;4213956;28;20194;-71
2022/11/04 06:45:18;;;;;;;2.77;1.40;;;5.90;99.90;;;;;;4215123;28;20214;-70
2022/11/04 06:47:19;;;;;;;3.10;1.50;;;5.90;99.90;;;;;;4214900;28;20255;-70
2022/11/04 06:49:21;;;;;;;4.90;1.47;;;6.00;99.90;;;;;;4215049;28;20201;-71
2022/11/04 06:51:24;;;;;;;1.87;1.10;;;5.80;99.90;;;;;;4214324;28;20183;-70
2022/11/04 06:53:26;;;;;;;6.83;1.40;;;5.80;99.90;;;;;;4218257;28;20423;-70
2022/11/04 06:55:26;;;;;;;3.23;0.97;;;5.90;99.90;;;;;;4231761;28;20959;-70
2022/11/04 06:57:27;;;;;;;1.23;1.13;;;5.80;99.90;;;;;;4231832;28;20476;-70
2022/11/04 06:59:28;;;;;;;2.67;1.10;;;5.90;99.90;;;;;;4231442;28;20212;-71
2022/11/04 07:01:33;;;;;;;4.37;1.50;;;6.00;99.90;;;;;;4229624;28;20186;-70
2022/11/04 07:03:33;;;;;;;7.00;2.00;;;5.90;99.90;;;;;;4230137;28;20234;-70
2022/11/04 07:05:34;;;;;;;2.60;1.30;;;5.90;99.90;;;;;;4231662;28;20431;-70
2022/11/04 07:07:35;;;;;;;5.13;2.00;;;6.00;99.90;;;;;;4235601;28;20198;-70
2022/11/04 07:09:36;;;;;;;3.23;1.23;;;6.00;99.90;;;;;;4250654;28;20194;-70
2022/11/04 07:11:37;;;;;;;3.37;2.10;;;6.00;99.90;;;;;;4236650;28;20186;-70
2022/11/04 07:13:39;;;;;;;4.13;1.90;;;6.00;99.90;;;;;;4231077;28;20213;-70
2022/11/04 07:15:40;;;;;;;3.47;2.00;;;6.00;99.90;;;;;;4232231;28;20230;-70
2022/11/04 07:17:40;;;;;;;3.03;1.57;;;6.10;99.90;;;;;;4213353;28;20935;-71
2022/11/04 07:19:41;;;;;;;5.07;1.53;;;6.20;99.90;;;;;;4231981;28;20256;-70
2022/11/04 07:21:42;;;;;;;2.27;1.40;;;6.30;99.90;;;;;;4230009;28;20258;-71
2022/11/04 07:23:43;;;;;;;4.47;1.30;;;6.40;99.90;;;;;;4231508;28;20205;-70
2022/11/04 07:25:43;;;;;;;4.17;1.50;;;6.40;99.90;;;;;;4230402;28;20250;-71
2022/11/04 07:27:44;;;;;;;6.63;1.30;;;6.40;99.90;;;;;;4231648;28;20210;-70
2022/11/04 07:29:45;;;;;;;2.77;1.20;;;6.40;99.90;;;;;;4231680;28;20278;-71
2022/11/04 07:31:45;;;;;;;5.80;1.40;;;6.40;99.90;;;;;;4230835;28;20222;-70
2022/11/04 07:33:48;;;;;;;1.30;1.00;;;6.50;99.90;;;;;;4231408;28;20174;-71
2022/11/04 07:35:49;;;;;;;1.67;1.13;;;6.50;99.90;;;;;;4231329;28;20190;-71
2022/11/04 07:37:50;;;;;;;1.60;1.30;;;6.60;99.90;;;;;;4231201;28;20428;-70
2022/11/04 07:39:50;;;;;;;1.40;1.00;;;6.70;99.90;;;;;;4230050;28;20265;-71
2022/11/04 07:41:51;;;;;;;1.53;1.10;;;6.80;99.90;;;;;;4230654;28;20847;-71
2022/11/04 07:43:53;;;;;;;3.13;1.60;;;6.80;99.90;;;;;;4229870;28;20663;-70
2022/11/04 07:46:07;;;;;;;5.33;1.20;;;6.70;99.90;;;;;;4229763;28;20287;-70
2022/11/04 07:48:08;;;;;;;1.43;0.90;;;6.50;99.90;;;;;;4229632;28;20507;-70
2022/11/04 07:50:09;;;;;;;1.57;1.00;;;6.50;99.90;;;;;;4230745;28;20427;-70
2022/11/04 07:52:10;;;;;;;3.53;1.10;;;6.70;99.90;;;;;;4230879;28;20179;-70
2022/11/04 07:54:11;;;;;;;1.90;0.93;;;6.80;99.90;;;;;;4229798;28;20189;-70
2022/11/04 07:56:12;;;;;;;3.30;1.00;;;7.10;99.90;;;;;;4231009;28;20213;-70
2022/11/04 07:58:13;;;;;;;1.70;0.90;;;7.30;99.90;;;;;;4229529;28;20282;-70
2022/11/04 08:00:15;;;;;;;33.87;13.53;;;7.40;99.90;;;;;;4230257;28;20467;-71
2022/11/04 08:02:16;;;;;;;7.80;3.67;;;7.60;99.90;;;;;;4229477;28;20795;-71
2022/11/04 08:04:16;;;;;;;5.17;1.77;;;7.70;99.90;;;;;;4230704;28;20420;-70
2022/11/04 08:06:19;;;;;;;4.47;2.10;;;7.80;99.90;;;;;;4229436;28;20186;-71
2022/11/04 08:08:20;;;;;;;2.33;1.60;;;8.00;99.80;;;;;;4221365;28;20215;-71
2022/11/04 08:10:20;;;;;;;2.47;1.30;;;8.00;99.50;;;;;;4213391;28;20432;-71
2022/11/04 08:12:23;;;;;;;2.70;1.30;;;7.90;99.70;;;;;;4212520;28;20614;-71
2022/11/04 08:14:23;;;;;;;2.37;1.00;;;7.70;99.90;;;;;;4213688;28;20174;-70
2022/11/04 08:16:25;;;;;;;3.03;0.93;;;7.70;99.90;;;;;;4214109;28;20419;-71
2022/11/04 08:18:25;;;;;;;2.33;0.90;;;7.90;99.90;;;;;;4213561;28;20568;-71
2022/11/04 08:20:26;;;;;;;2.17;1.10;;;8.00;99.90;;;;;;4213320;28;20202;-70
2022/11/04 08:22:27;;;;;;;2.93;0.93;;;7.90;99.90;;;;;;4229102;28;20193;-71
2022/11/04 08:24:27;;;;;;;2.40;1.07;;;7.90;99.90;;;;;;4228836;28;20250;-70
2022/11/04 08:26:28;;;;;;;1.80;1.00;;;7.90;99.70;;;;;;4212132;28;20269;-70
2022/11/04 08:28:29;;;;;;;1.20;1.00;;;7.80;99.90;;;;;;4213293;28;20219;-70
2022/11/04 08:30:29;;;;;;;1.63;0.80;;;7.80;99.90;;;;;;4212275;28;20532;-71
2022/11/04 08:32:30;;;;;;;1.27;1.00;;;7.90;99.90;;;;;;4228950;28;20192;-71
2022/11/04 08:34:31;;;;;;;1.93;1.00;;;7.90;99.90;;;;;;4213446;28;20190;-71
2022/11/04 08:36:36;;;;;;;0.93;0.87;;;8.10;99.90;;;;;;4213835;28;20709;-70
2022/11/04 08:38:37;;;;;;;1.30;1.00;;;8.20;99.90;;;;;;4229212;28;20225;-71
2022/11/04 08:40:37;;;;;;;2.83;1.03;;;8.40;98.10;;;;;;4213113;28;20235;-71
2022/11/04 08:42:38;;;;;;;4.10;0.97;;;8.50;98.00;;;;;;4214100;28;20269;-70
2022/11/04 08:44:39;;;;;;;2.37;0.90;;;8.70;98.40;;;;;;4213398;28;20186;-70
2022/11/04 08:46:42;;;;;;;1.33;0.67;;;8.60;97.30;;;;;;4213673;28;20181;-69
2022/11/04 08:48:44;;;;;;;1.23;1.07;;;8.40;97.80;;;;;;4229486;28;20654;-70
2022/11/04 08:50:50;;;;;;;1.17;0.80;;;8.30;98.00;;;;;;4213595;28;20265;-70
2022/11/04 08:52:51;;;;;;;2.43;1.10;;;8.30;98.10;;;;;;4228615;28;20300;-70
2022/11/04 08:54:53;;;;;;;1.47;1.00;;;8.20;98.40;;;;;;4227875;28;20265;-70
2022/11/04 08:56:54;;;;;;;2.60;1.40;;;8.00;99.50;;;;;;4228514;28;20187;-69
2022/11/04 08:58:57;;;;;;;2.93;1.00;;;8.10;99.10;;;;;;4228083;28;20251;-70
2022/11/04 09:01:03;;;;;;;2.57;1.23;;;8.20;99.70;;;;;;4227662;28;20220;-70
2022/11/04 09:03:04;;;;;;;2.87;1.50;;;8.10;99.20;;;;;;4218125;28;20181;-69
2022/11/04 09:05:05;;;;;;;5.17;1.30;;;8.10;99.10;;;;;;4213008;28;20185;-70
2022/11/04 09:07:06;;;;;;;1.23;1.10;;;8.00;99.10;;;;;;4194661;28;20266;-70
2022/11/04 09:09:11;;;;;;;1.70;1.00;;;7.70;99.90;;;;;;4211640;28;20279;-70
2022/11/04 09:11:14;;;;;;;2.97;1.00;;;7.70;99.90;;;;;;4226719;28;20181;-69
2022/11/04 09:13:16;;;;;;;1.97;1.10;;;7.60;99.90;;;;;;4233619;28;20556;-71
2022/11/04 09:15:16;;;;;;;5.70;1.67;;;7.60;99.90;;;;;;4230533;28;20185;-71
2022/11/04 09:17:17;;;;;;;3.40;1.40;;;7.60;99.90;;;;;;4229887;28;20243;-71
2022/11/04 09:19:18;;;;;;;2.70;1.20;;;7.50;99.90;;;;;;4228999;28;20282;-70
2022/11/04 09:21:19;;;;;;;6.17;2.20;;;7.50;99.90;;;;;;4227698;28;20191;-70
2022/11/04 09:23:19;;;;;;;3.23;2.17;;;7.50;99.90;;;;;;4213000;28;20235;-71
2022/11/04 09:25:20;;;;;;;3.10;1.90;;;7.50;99.90;;;;;;4211826;28;20193;-69
2022/11/04 09:27:20;;;;;;;3.17;1.50;;;7.70;99.90;;;;;;4213811;28;20216;-71
2022/11/04 09:29:21;;;;;;;2.23;1.70;;;7.90;99.90;;;;;;4212904;28;20218;-71
2022/11/04 09:31:25;;;;;;;2.83;1.70;;;8.00;99.90;;;;;;4211387;28;20187;-71
2022/11/04 09:33:26;;;;;;;2.30;1.70;;;8.20;99.90;;;;;;4213648;28;20186;-71
2022/11/04 09:35:26;;;;;;;3.10;2.13;;;8.30;99.90;;;;;;4213197;28;20175;-71
2022/11/04 09:37:27;;;;;;;2.30;1.37;;;8.50;99.90;;;;;;4212705;28;20274;-70
2022/11/04 09:39:28;;;;;;;2.87;1.80;;;8.60;99.90;;;;;;4214579;28;20243;-71
2022/11/04 09:42:00;;;;;;;1.87;1.10;;;8.40;99.90;;;;;;4211542;28;20209;-70
2022/11/04 09:44:27;;;;;;;2.90;1.40;;;8.30;99.90;;;;;;4213974;28;20187;-71
2022/11/04 09:46:31;;;;;;;3.10;1.10;;;8.30;99.90;;;;;;4230483;28;20274;-71
2022/11/04 09:48:47;;;;;;;1.30;1.10;;;8.30;99.90;;;;;;4213909;28;20241;-70
2022/11/04 09:50:52;;;;;;;4.13;1.23;;;8.40;99.90;;;;;;4211408;28;20178;-69
2022/11/04 09:53:02;;;;;;;4.13;1.30;;;8.30;99.90;;;;;;4211075;28;20232;-69
2022/11/04 09:55:15;;;;;;;9.57;1.47;;;8.40;99.90;;;;;;4194163;28;20175;-69
2022/11/04 09:57:18;;;;;;;4.50;1.40;;;8.40;99.90;;;;;;4212378;28;20174;-69
2022/11/04 09:59:32;;;;;;;3.27;1.77;;;8.30;99.90;;;;;;4211338;28;20260;-69
2022/11/04 10:01:42;;;;;;;3.00;1.90;;;8.30;99.90;;;;;;4213115;28;20266;-68
2022/11/04 10:04:20;;;;;;;2.37;1.43;;;8.30;99.90;;;;;;4227669;28;20185;-69
2022/11/04 10:06:46;;;;;;;3.77;1.70;;;8.30;99.90;;;;;;4206327;28;20708;-69
2022/11/04 10:09:16;;;;;;;2.70;1.40;;;8.50;99.90;;;;;;4228137;28;20287;-70
2022/11/04 10:11:37;;;;;;;3.03;1.50;;;8.40;99.90;;;;;;4231147;27;20276;-71
2022/11/04 10:13:56;;;;;;;2.57;1.30;;;8.30;99.90;;;;;;4241203;28;20237;-71
2022/11/04 10:16:16;;;;;;;5.80;1.47;;;8.10;99.90;;;;;;4232944;28;20169;-69
2022/11/04 10:18:50;;;;;;;7.07;1.60;;;8.20;99.90;;;;;;4235525;28;20708;-69
2022/11/04 10:21:09;;;;;;;2.03;1.50;;;8.40;99.90;;;;;;4241068;28;20231;-69
2022/11/04 10:23:58;;;;;;;5.73;2.20;;;8.40;99.90;;;;;;4229524;28;20192;-68
2022/11/04 10:26:28;;;;;;;6.63;2.10;;;8.30;99.90;;;;;;4212284;28;20998;-69
2022/11/04 10:29:00;;;;;;;5.00;1.77;;;8.20;99.90;;;;;;4233609;28;20223;-68
2022/11/04 10:31:02;;;;;;;5.33;2.20;;;8.50;99.90;;;;;;4240571;28;20226;-68
2022/11/04 10:33:17;;;;;;;2.30;1.57;;;8.60;99.90;;;;;;4228874;28;20186;-68
2022/11/04 10:35:43;;;;;;;3.07;1.70;;;8.90;99.90;;;;;;4210590;28;20167;-71
2022/11/04 10:37:46;;;;;;;4.23;2.00;;;9.30;99.90;;;;;;4241635;27;20637;-68
2022/11/04 10:39:47;;;;;;;3.00;1.90;;;9.40;98.90;;;;;;4231376;28;20197;-69
2022/11/04 10:41:47;;;;;;;6.60;2.00;;;9.60;98.50;;;;;;4240251;28;20202;-68
2022/11/04 10:43:51;;;;;;;3.03;1.60;;;9.90;97.80;;;;;;4231343;28;20173;-69
2022/11/04 10:46:29;;;;;;;4.33;1.37;;;9.90;97.00;;;;;;4238671;28;20624;-69
2022/11/04 10:48:48;;;;;;;2.97;1.73;;;9.80;97.40;;;;;;4232160;28;20220;-69
2022/11/04 10:50:57;;;;;;;4.43;2.00;;;9.80;98.20;;;;;;4230492;28;20186;-72
2022/11/04 10:53:12;;;;;;;5.33;1.70;;;10.00;99.10;;;;;;4242869;27;20250;-68
2022/11/04 10:55:50;;;;;;;5.10;1.40;;;10.10;97.00;;;;;;4232026;27;20242;-67
2022/11/04 10:57:57;;;;;;;1.87;1.13;;;10.20;97.10;;;;;;4222843;27;20185;-68
2022/11/04 11:00:02;;;;;;;4.77;2.00;;;10.20;96.50;;;;;;4242724;27;20174;-69
2022/11/04 11:02:03;;;;;;;5.30;1.90;;;10.30;96.70;;;;;;4237149;27;20560;-70
2022/11/04 11:04:06;;;;;;;4.03;2.07;;;10.20;96.00;;;;;;4240594;27;20186;-68
2022/11/04 11:06:22;;;;;;;5.80;2.63;;;10.20;95.50;;;;;;4238677;27;20582;-70
2022/11/04 11:08:30;;;;;;;4.90;1.80;;;10.00;96.80;;;;;;4239031;27;20210;-70
2022/11/04 11:10:33;;;;;;;4.27;1.23;;;9.80;96.40;;;;;;4240111;27;20309;-70
2022/11/04 11:12:45;;;;;;;2.20;1.30;;;9.60;96.90;;;;;;4248280;27;20189;-70
2022/11/04 11:14:47;;;;;;;3.43;1.57;;;9.50;98.10;;;;;;4250216;27;20746;-69
2022/11/04 11:16:48;;;;;;;5.37;1.00;;;9.60;99.30;;;;;;4236206;27;20794;-70
2022/11/04 11:19:19;;;;;;;3.97;1.10;;;9.80;98.00;;;;;;4244548;27;20212;-69
2022/11/04 11:21:22;;;;;;;4.40;1.60;;;9.80;96.50;;;;;;4214985;27;20630;-69
2022/11/04 11:23:40;;;;;;;2.17;1.30;;;9.70;96.80;;;;;;4247797;27;20182;-71
2022/11/04 11:25:49;;;;;;;2.20;1.00;;;9.60;96.70;;;;;;4234820;27;20182;-70
2022/11/04 11:28:02;;;;;;;4.00;1.00;;;9.70;96.20;;;;;;4243897;27;20288;-70
2022/11/04 11:30:04;;;;;;;2.80;0.90;;;9.80;95.60;;;;;;4237067;27;20577;-70
2022/11/04 11:32:20;;;;;;;1.67;0.90;;;9.90;95.60;;;;;;4239621;27;20243;-67
2022/11/04 11:34:32;;;;;;;2.13;0.73;;;10.40;94.40;;;;;;4239162;27;20174;-68
2022/11/04 11:36:37;;;;;;;2.03;0.87;;;10.70;91.60;;;;;;4236393;27;20205;-67